CheckWX is a tool to help pilots better visualize weather data.  It is not intended as a substitute for an official pre-flight weather briefing.

07:24:40 UTC

EBLG METAR
Liège Airport
Liège, Belgium
Current

35 mins ago

EBLG 210650Z 29012KT 250V320 0800 R22L/1200N R22R/1400N R04R/1300U FG BKN001 BKN002 09/08 Q1013 NOSIG
Observed
May-21 @ 06:50 UTC
Wind
  • 290° at 12 KTS
Visibility
805 meters
Flight Rules
LIFR
Conditions
Fog
Cloud Levels
  • Broken at 100' AGL
  • Broken at 200' AGL
Temperature
C / 48°F
Dewpoint
C / 46°F
Humidity
94%
Altimeter
29.91" Hg
Pressure
1012.92 hPa
Previous

1 hour ago

EBLG 210620Z 29010KT 0200 R22L/0400N R22R/0400N R04R/0400N FG -DZ BKN001 09/09 Q1013 NOSIG
Observed
May-21 @ 06:20 UTC
Wind
  • 290° at 10 KTS
Visibility
193 meters
Flight Rules
LIFR
Conditions
Light Drizzle, Fog
Cloud Levels
  • Broken at 100' AGL
Temperature
C / 48°F
Dewpoint
C / 48°F
Humidity
100%
Altimeter
29.91" Hg
Pressure
1012.92 hPa
Previous

2 hours ago

EBLG 210550Z 29011KT 0400 R22L/0650N R22R/0650N R04R/0550N FG -DZ BKN001 BKN002 09/09 Q1013 NOSIG
Observed
May-21 @ 05:50 UTC
Wind
  • 290° at 11 KTS
Visibility
402 meters
Flight Rules
LIFR
Conditions
Light Drizzle, Fog
Cloud Levels
  • Broken at 100' AGL
  • Broken at 200' AGL
Temperature
C / 48°F
Dewpoint
C / 48°F
Humidity
100%
Altimeter
29.91" Hg
Pressure
1012.92 hPa